Austin, Missouri
Current Conditions -  °F | °C
As of 12:53 PM on Thursday 18 Dec 2014 (Local Time) from KOJC Reporting Station
Haze Haze  
Wind Chill: 33°   Ceiling: 700
Heat Index: 33°   Visibility: 5mi
Dew Point: 30°   Wind: 3mph
Humidity: 89%   Direction: 80°E
Pressure: 30.18"   Gusts: NA
Location:  38.5148°N, 94.3768°W
Report Text: KOJC 181853Z 08003KT 5SM BR OVC007 01/M01 A3018 RMK AO2 SLP229 T00061011
Loading
Personal Weather Stations






























Interactive Weather Map New forecast layout! Learn more

10-Day Weather Forecast

Advertisements
Track Severe Weather on mobile